METAR Data
IDs: Format: Raw Decoded Include TAF

Data at: 0240 UTC 25 Jan 2020

PAQT 250153Z AUTO 25009KT 8SM OVC090 M32/M35 A3034 RMK AO2 SLP276 T13221350 TSNO PNO
PAQT 250053Z AUTO 24008KT 6SM HZ BKN070 OVC100 M31/M34 A3034 RMK AO2 SLP278 T13111339 TSNO PNO
PAQT 242353Z AUTO 25008KT 6SM HZ FEW090 M32/M34 A3035 RMK AO2 SLP278 I6000 T13171344 11256 21317 58001 TSNO PNO
PAQT 242253Z AUTO 26008KT 6SM BR BKN060 M31/M33 A3035 RMK AO2 SLP279 T13061328 TSNO PNO
PAQT 242153Z AUTO 27008KT 6SM HZ BKN060 M29/M32 A3035 RMK AO2 SLP280 T12941322 TSNO PNO
PAQT 242053Z AUTO 26008KT 3SM BR OVC055 M28/M30 A3035 RMK AO2 SNB38E52 SLP280 I1000 I3000 T12781300 51002 TSNO PNO
PAQT 242049Z AUTO 26008KT 2 1/2SM -SN OVC055 M27/M30 A3035 RMK AO2 SNB38 I1000 TSNO PNO
PAQT 241953Z AUTO 27008KT 7SM OVC049 M26/M29 A3035 RMK AO2 SLP279 I1000 T12611289 TSNO PNO
PAQT 241853Z AUTO 26009KT 7SM OVC049 M26/M28 A3034 RMK AO2 SLP278 T12561283 TSNO PNO
PAQT 241753Z AUTO 28009KT 7SM OVC050 M26/M28 A3034 RMK AO2 SLP275 I1001 I6001 T12561283 11256 21306 51006 TSNO PNO
PAQT 241653Z AUTO 28008KT 7SM OVC050 M26/M28 A3033 RMK AO2 SLP274 I1000 T12561283 TSNO PNO
PAQT 241553Z AUTO 26007KT 8SM OVC050 M26/M28 A3033 RMK AO2 SLP271 T12561278 TSNO PNO $
PAQT 241453Z AUTO 27007KT 7SM OVC055 M26/M28 A3032 RMK AO2 SLP269 I3000 T12561283 51006 TSNO PNO $
PAQT 241353Z AUTO 27007KT 7SM OVC055 M26/M28 A3032 RMK AO2 SLP267 T12611283 TSNO PNO $
PAQT 241253Z AUTO 26007KT 8SM OVC055 M28/M31 A3031 RMK AO2 SLP267 I1000 T12781306 TSNO PNO $
PAQT 241153Z AUTO 25007KT 8SM OVC055 M31/M33 A3030 RMK AO2 SLP263 I6002 T13111333 11306 21317 51010 TSNO PNO $
PAQT 241053Z AUTO 27009KT 8SM SCT070 M31/M33 A3030 RMK AO2 SLP261 I1001 T13061333 TSNO PNO $
PAQT 240953Z AUTO 26008KT 8SM OVC070 M31/M33 A3029 RMK AO2 SLP258 T13111333 TSNO PNO $
PAQT 240853Z AUTO 26007KT 8SM OVC070 M31/M34 A3027 RMK AO2 SLP252 I1001 I3001 T13111339 412171317 52014 TSNO PNO $
PAQT 240753Z AUTO 26007KT 8SM OVC070 M31/M33 A3026 RMK AO2 SLP248 I1000 T13061333 TSNO PNO $
PAQT 240653Z AUTO 26008KT 8SM BKN070 M31/M34 A3024 RMK AO2 SLP243 I1000 T13111339 TSNO PNO $
PAQT 240553Z AUTO 26007KT 8SM CLR M31/M33 A3023 RMK AO2 SLP238 I6000 T13111333 11261 21311 51015 TSNO PNO $
PAQT 240453Z AUTO 25009KT 8SM CLR M31/M33 A3022 RMK AO2 SLP235 I1000 T13061333 TSNO PNO $
PAQT 240353Z AUTO 24008KT 8SM CLR M30/M33 A3020 RMK AO2 SLP228 I1000 T13001328 TSNO PNO $
PAQT 240253Z AUTO 24006KT 8SM SCT050 BKN100 M28/M31 A3018 RMK AO2 SLP222 I3000 T12831306 53016 TSNO PNO $
PAQT 240153Z AUTO 25010KT 8SM OVC055 M26/M29 A3017 RMK AO2 SLP217 T12611294 TSNO PNO $
PAQT 240053Z AUTO 24010KT 7SM OVC055 M28/M31 A3015 RMK AO2 SLP211 I1000 T12781306 TSNO PNO $
PAQT 232353Z AUTO 25010KT 6SM BR OVC055 M28/M30 A3014 RMK AO2 SLP206 I1000 I6000 T12781300 11239 21283 51015 TSNO PNO $
PAQT 232253Z AUTO 24008KT 6SM BR SCT055 BKN110 M28/M31 A3012 RMK AO2 SLP202 I1000 T12831306 TSNO PNO $
PAQT 232235Z AUTO 25009KT 6SM BR SCT006 SCT055 OVC110 M28/M30 A3012 RMK AO2 I1000 T12781300 TSNO PNO $
PAQT 232153Z AUTO 25011KT 6SM BR OVC007 M27/M29 A3011 RMK AO2 SLP197 I1000 T12671289 TSNO PNO $
PAQT 232053Z AUTO 25015KT 6SM BR OVC006 M26/M28 A3009 RMK AO2 SLP191 T12561278 53021 TSNO PNO $
PAQT 231953Z AUTO 24011KT 4SM BR OVC006 M25/M27 A3007 RMK AO2 SLP185 T12501272 TSNO PNO $
PAQT 231905Z AUTO 25011KT 7SM OVC005 M25/M27 A3005 RMK AO2 T12501272 TSNO PNO $
PAQT 231853Z AUTO 26011KT 7SM BKN004 OVC013 M25/M28 A3005 RMK AO2 SLP177 T12501278 TSNO PNO $
PAQT 231842Z AUTO 25011KT 7SM BKN004 OVC008 M25/M27 A3005 RMK AO2 T12501272 TSNO PNO $
PAQT 231753Z AUTO 26012KT 4SM BR OVC005 M24/M26 A3003 RMK AO2 SLP171 I6000 T12391256 11217 21244 53016 TSNO PNO $
PAQT 231744Z AUTO 27011KT 5SM BR OVC005 M23/M26 A3003 RMK AO2 T12331256 TSNO PNO $
PAQT 231732Z AUTO 27009KT 3SM BR OVC004 M23/M24 A3002 RMK AO2 T12331244 TSNO PNO $
PAQT 231724Z AUTO 26011KT 1 3/4SM BR OVC004 M23/M24 A3002 RMK AO2 T12281244 TSNO PNO $
PAQT 231718Z AUTO 26013KT 4SM BR OVC004 M23/M24 A3002 RMK AO2 T12281244 TSNO PNO $
PAQT 231653Z AUTO 26010KT 6SM BR OVC007 M22/M24 A3001 RMK AO2 SLP164 I1000 T12221239 TSNO PNO $
PAQT 231553Z AUTO 23009KT 7SM OVC007 M23/M24 A3000 RMK AO2 SLP160 I1000 T12281244 TSNO PNO $
PAQT 231517Z AUTO 23010KT 3SM BR OVC005 M23/M24 A2999 RMK AO2 I1000 T12281244 TSNO PNO $
PAQT 231508Z AUTO 23010KT 2 1/2SM BR OVC005 M23/M24 A2999 RMK AO2 T12281244 TSNO PNO $
PAQT 231453Z AUTO 23010KT 1 1/4SM BR OVC005 M23/M24 A2999 RMK AO2 SLP155 I1000 I3000 T12331244 51014 TSNO PNO $